createdAt,value
2018-10-05T00:00:11.831Z,203.88
2018-10-05T00:02:40.536Z,205.25
2018-10-05T00:05:09.364Z,214.42
2018-10-05T00:07:38.184Z,204.93
2018-10-05T00:10:07.056Z,205.57
2018-10-05T00:12:36.078Z,212.80
2018-10-05T00:15:04.816Z,202.25
2018-10-05T00:17:33.755Z,204.65
2018-10-05T00:20:02.498Z,199.05
2018-10-05T00:22:32.311Z,212.45
2018-10-05T00:25:01.171Z,207.35
2018-10-05T00:27:41.544Z,208.07
2018-10-05T00:30:10.395Z,202.90
2018-10-05T00:32:39.117Z,210.85
2018-10-05T00:35:08.141Z,212.82
2018-10-05T00:37:36.799Z,210.00
2018-10-05T00:40:05.575Z,208.28
2018-10-05T00:42:34.384Z,212.68
2018-10-05T00:45:03.322Z,204.72
2018-10-05T00:47:32.158Z,202.82
2018-10-05T00:50:01.023Z,200.57
2018-10-05T00:52:29.775Z,200.62
2018-10-05T00:54:58.923Z,200.68
2018-10-05T00:57:27.515Z,202.87
2018-10-05T00:59:56.381Z,203.98
2018-10-05T01:02:25.096Z,203.37
2018-10-05T01:04:54.042Z,200.87
2018-10-05T01:07:22.863Z,199.95
2018-10-05T01:09:51.999Z,207.62
2018-10-05T01:12:20.953Z,211.05
2018-10-05T01:14:49.815Z,202.50
2018-10-05T01:17:18.647Z,206.00
2018-10-05T01:19:47.747Z,203.00
2018-10-05T01:22:17.201Z,201.25
2018-10-05T01:24:46.164Z,197.98
2018-10-05T01:27:14.903Z,202.00
2018-10-05T01:29:43.718Z,198.87
2018-10-05T01:32:12.300Z,203.25
2018-10-05T01:34:41.130Z,201.30
2018-10-05T01:37:09.824Z,202.80
2018-10-05T01:39:38.793Z,199.42
2018-10-05T01:42:07.496Z,205.22
2018-10-05T01:44:36.358Z,202.50
2018-10-05T01:47:05.340Z,197.90
2018-10-05T01:49:34.107Z,201.92
2018-10-05T01:52:02.990Z,204.68
2018-10-05T01:54:32.131Z,204.68
2018-10-05T01:57:00.733Z,204.20
2018-10-05T01:59:29.653Z,199.77
2018-10-05T02:01:58.356Z,207.47
2018-10-05T02:04:27.583Z,224.27
2018-10-05T02:06:56.244Z,258.47
2018-10-05T02:09:25.058Z,252.32
2018-10-05T02:11:53.600Z,202.47
2018-10-05T02:14:22.827Z,200.62
2018-10-05T02:16:51.507Z,202.90
2018-10-05T02:19:20.515Z,203.02
2018-10-05T02:21:49.494Z,204.00
2018-10-05T02:24:18.206Z,196.65
2018-10-05T02:26:47.224Z,196.40
2018-10-05T02:29:15.970Z,197.53
2018-10-05T02:31:45.172Z,194.90
2018-10-05T02:34:15.851Z,198.07
2018-10-05T02:36:44.935Z,193.70
2018-10-05T02:39:13.997Z,193.70
2018-10-05T02:41:43.003Z,194.62
2018-10-05T02:44:11.924Z,198.43
2018-10-05T02:46:40.561Z,194.02
2018-10-05T02:49:09.369Z,192.95
2018-10-05T02:51:38.096Z,194.05
2018-10-05T02:54:07.428Z,197.17
2018-10-05T02:56:36.822Z,197.22
2018-10-05T02:59:05.835Z,195.15
2018-10-05T03:01:40.007Z,199.15
2018-10-05T03:04:08.810Z,196.63
2018-10-05T03:06:37.581Z,193.82
2018-10-05T03:09:07.018Z,194.35
2018-10-05T03:11:37.366Z,196.15
2018-10-05T03:14:05.945Z,200.90
2018-10-05T03:16:37.124Z,194.30
2018-10-05T03:19:05.919Z,194.90
2018-10-05T03:21:34.791Z,196.25
2018-10-05T03:24:03.651Z,198.07
2018-10-05T03:26:32.378Z,199.35
2018-10-05T03:29:01.092Z,198.65
2018-10-05T03:31:31.947Z,196.80
2018-10-05T03:34:00.856Z,199.05
2018-10-05T03:36:30.545Z,193.82
2018-10-05T03:38:59.243Z,196.40
2018-10-05T03:41:28.235Z,196.85
2018-10-05T03:43:56.779Z,194.77
2018-10-05T03:46:25.716Z,193.65
2018-10-05T03:48:54.547Z,194.37
2018-10-05T03:51:23.283Z,197.75
2018-10-05T03:53:52.090Z,220.37
2018-10-05T03:56:20.801Z,201.80
2018-10-05T03:58:49.771Z,206.43
2018-10-05T04:01:19.250Z,196.57
2018-10-05T04:03:48.086Z,192.10
2018-10-05T04:06:16.979Z,193.05
2018-10-05T04:08:45.598Z,195.77
2018-10-05T04:11:14.232Z,194.25
2018-10-05T04:13:42.888Z,201.12
2018-10-05T04:16:11.504Z,192.60
2018-10-05T04:18:40.212Z,193.72
2018-10-05T04:21:09.093Z,199.70
2018-10-05T04:23:37.984Z,191.00
2018-10-05T04:26:06.920Z,193.32
2018-10-05T04:28:35.817Z,195.32
2018-10-05T04:31:04.607Z,197.02
2018-10-05T04:33:33.960Z,192.35
2018-10-05T04:36:02.805Z,198.25
2018-10-05T04:38:31.525Z,193.57
2018-10-05T04:41:00.188Z,200.03
2018-10-05T04:43:28.864Z,196.07
2018-10-05T04:45:57.538Z,195.43
2018-10-05T04:48:26.236Z,194.90
2018-10-05T04:50:55.140Z,198.32
2018-10-05T04:53:24.317Z,192.87
2018-10-05T04:55:53.286Z,197.57
2018-10-05T04:58:22.064Z,196.87
2018-10-05T05:00:50.940Z,198.00
2018-10-05T05:03:19.790Z,196.95
2018-10-05T05:05:50.287Z,200.65
2018-10-05T05:08:18.983Z,194.15
2018-10-05T05:10:47.766Z,194.20
2018-10-05T05:13:16.754Z,198.35
2018-10-05T05:15:45.350Z,201.67
2018-10-05T05:18:14.083Z,197.55
2018-10-05T05:20:42.836Z,198.62
2018-10-05T05:23:13.383Z,197.57
2018-10-05T05:25:42.337Z,196.72
2018-10-05T05:28:11.349Z,198.38
2018-10-05T05:30:40.419Z,196.95
2018-10-05T05:33:09.331Z,200.32
2018-10-05T05:35:40.927Z,198.82
2018-10-05T05:38:10.902Z,191.73
2018-10-05T05:40:40.321Z,200.78
2018-10-05T05:43:09.209Z,197.70
2018-10-05T05:45:39.298Z,194.80
2018-10-05T05:48:08.102Z,199.38
2018-10-05T05:50:36.884Z,199.02
2018-10-05T05:53:16.141Z,199.27
2018-10-05T05:55:52.147Z,201.90
2018-10-05T05:58:21.089Z,197.82
2018-10-05T06:00:49.679Z,194.47
2018-10-05T06:03:18.254Z,203.83
2018-10-05T06:05:47.291Z,206.78
2018-10-05T06:08:16.725Z,202.15
2018-10-05T06:10:47.049Z,201.20
2018-10-05T06:13:15.881Z,207.45
2018-10-05T06:15:47.345Z,204.07
2018-10-05T06:18:16.189Z,200.47
2018-10-05T06:20:44.752Z,201.70
2018-10-05T06:23:14.066Z,201.45
2018-10-05T06:25:43.208Z,198.57
2018-10-05T06:28:12.042Z,201.30
2018-10-05T06:30:42.198Z,199.95
2018-10-05T06:33:11.193Z,202.03
2018-10-05T06:35:40.280Z,208.60
2018-10-05T06:38:09.110Z,197.68
2018-10-05T06:40:37.868Z,197.70
2018-10-05T06:43:07.686Z,196.55
2018-10-05T06:45:36.600Z,204.90
2018-10-05T06:48:05.726Z,201.30
2018-10-05T06:50:35.279Z,203.73
2018-10-05T06:53:03.869Z,200.30
2018-10-05T06:55:33.052Z,200.50
2018-10-05T06:58:02.018Z,202.57
2018-10-05T07:00:32.720Z,214.25
2018-10-05T07:03:01.655Z,201.82
2018-10-05T07:05:30.678Z,211.70
2018-10-05T07:08:01.752Z,208.90
2018-10-05T07:10:30.866Z,205.47
2018-10-05T07:13:00.404Z,208.28
2018-10-05T07:15:29.959Z,213.77
2018-10-05T07:17:59.935Z,222.60
2018-10-05T07:20:29.244Z,224.80
2018-10-05T07:22:58.460Z,212.02
2018-10-05T07:25:27.492Z,214.90
2018-10-05T07:27:57.375Z,214.35
2018-10-05T07:30:26.268Z,213.65
2018-10-05T07:32:55.348Z,212.97
2018-10-05T07:35:23.939Z,208.80
2018-10-05T07:37:53.361Z,231.95
2018-10-05T07:40:22.250Z,217.32
2018-10-05T07:42:51.545Z,215.07
2018-10-05T07:45:20.356Z,223.38
2018-10-05T07:47:50.491Z,215.70
2018-10-05T07:50:22.396Z,222.95
2018-10-05T07:52:51.923Z,217.65
2018-10-05T07:55:21.795Z,226.85
2018-10-05T07:57:54.587Z,229.35
2018-10-05T08:00:24.977Z,224.50
2018-10-05T08:02:54.513Z,229.90
2018-10-05T08:05:30.035Z,219.57
2018-10-05T08:08:00.499Z,236.03
2018-10-05T08:10:31.062Z,229.13
2018-10-05T08:13:00.871Z,237.53
2018-10-05T08:15:31.330Z,238.47
2018-10-05T08:18:00.186Z,235.88
2018-10-05T08:20:28.849Z,234.52
2018-10-05T08:22:58.112Z,251.30
2018-10-05T08:25:27.537Z,248.65
2018-10-05T08:27:58.489Z,225.05
2018-10-05T08:30:31.968Z,229.35
2018-10-05T08:33:02.465Z,230.95
2018-10-05T08:35:33.052Z,230.70
2018-10-05T08:38:03.782Z,246.50
2018-10-05T08:40:35.989Z,234.55
2018-10-05T08:43:07.555Z,244.87
2018-10-05T08:45:38.342Z,257.50
2018-10-05T08:48:08.657Z,254.85
2018-10-05T08:50:45.449Z,286.57
2018-10-05T08:53:15.969Z,274.27
2018-10-05T08:55:47.325Z,287.93
2018-10-05T08:58:17.113Z,265.00
2018-10-05T09:00:47.518Z,292.68
2018-10-05T09:03:16.554Z,264.57
2018-10-05T09:05:45.472Z,284.25
2018-10-05T09:08:16.755Z,289.02
2018-10-05T09:10:46.079Z,293.00
2018-10-05T09:13:16.254Z,293.10
2018-10-05T09:15:48.779Z,296.05
2018-10-05T09:18:23.019Z,280.62
2018-10-05T09:20:55.299Z,284.50
2018-10-05T09:23:27.222Z,294.15
2018-10-05T09:25:59.947Z,294.30
2018-10-05T09:28:31.756Z,284.13
2018-10-05T09:31:04.270Z,283.98
2018-10-05T09:33:36.114Z,303.95
2018-10-05T09:36:09.659Z,283.15
2018-10-05T09:38:42.154Z,322.27
2018-10-05T09:41:22.513Z,292.20
2018-10-05T09:43:55.366Z,312.17
2018-10-05T09:46:30.616Z,290.60
2018-10-05T09:49:11.340Z,307.85
2018-10-05T09:51:42.802Z,368.60
2018-10-05T09:56:56.342Z,508.12
2018-10-05T09:59:30.494Z,534.55
2018-10-05T10:02:05.685Z,599.95
2018-10-05T10:04:35.082Z,669.73
2018-10-05T10:07:05.438Z,672.60
2018-10-05T10:09:35.167Z,781.25
2018-10-05T10:12:06.614Z,815.77
2018-10-05T10:14:35.684Z,851.13
2018-10-05T10:17:08.352Z,906.12
2018-10-05T10:19:38.108Z,981.05
2018-10-05T10:24:58.378Z,1140.23
2018-10-05T10:27:29.454Z,1087.85
2018-10-05T10:30:04.264Z,1081.83
2018-10-05T10:32:35.947Z,1073.78
2018-10-05T10:35:05.508Z,1031.63
2018-10-05T10:37:36.445Z,994.22
2018-10-05T10:40:06.869Z,916.38
2018-10-05T10:42:37.259Z,838.85
2018-10-05T10:45:07.321Z,869.15
2018-10-05T10:47:37.192Z,896.57
2018-10-05T10:50:06.088Z,909.30
2018-10-05T10:52:34.748Z,885.90
2018-10-05T10:55:05.156Z,864.45
2018-10-05T10:57:47.090Z,924.87
2018-10-05T11:03:11.792Z,887.50
2018-10-05T11:05:49.707Z,898.32
2018-10-05T11:08:18.500Z,990.83
2018-10-05T11:10:47.405Z,945.20
2018-10-05T11:13:16.549Z,1038.63
2018-10-05T11:15:45.770Z,948.32
2018-10-05T11:18:14.812Z,936.97
2018-10-05T11:20:44.023Z,877.02
2018-10-05T11:23:15.182Z,768.80
2018-10-05T11:25:44.789Z,760.90
2018-10-05T11:28:13.566Z,748.78
2018-10-05T11:30:42.221Z,741.92
2018-10-05T11:33:11.127Z,672.33
2018-10-05T11:35:40.458Z,676.40
2018-10-05T11:38:09.457Z,698.90
2018-10-05T11:40:38.701Z,624.98
2018-10-05T11:43:08.213Z,503.95
2018-10-05T11:45:36.946Z,524.45
2018-10-05T11:48:05.948Z,468.00
2018-10-05T11:50:34.797Z,430.93
2018-10-05T11:53:15.622Z,457.73
2018-10-05T11:55:45.086Z,453.02
2018-10-05T11:58:16.226Z,485.02
2018-10-05T12:00:47.110Z,478.42
2018-10-05T12:03:17.569Z,477.52
2018-10-05T12:05:47.741Z,477.45
2018-10-05T12:08:17.183Z,507.47
2018-10-05T12:10:47.484Z,766.65
2018-10-05T12:13:22.199Z,821.40
2018-10-05T12:15:54.213Z,1116.38
2018-10-05T12:18:24.434Z,631.20
2018-10-05T12:20:54.124Z,534.98
2018-10-05T12:23:24.077Z,499.90
2018-10-05T12:25:57.222Z,485.78
2018-10-05T12:28:27.402Z,466.77
2018-10-05T12:30:56.696Z,493.90
2018-10-05T12:33:26.353Z,471.50
2018-10-05T12:35:55.854Z,446.95
2018-10-05T12:38:27.506Z,507.30
2018-10-05T12:40:58.197Z,515.05
2018-10-05T12:43:29.985Z,549.62
2018-10-05T12:46:01.196Z,1105.63
2018-10-05T12:48:32.559Z,542.12
2018-10-05T12:51:13.165Z,460.25
2018-10-05T12:53:46.151Z,413.15
2018-10-05T12:56:19.110Z,406.37
2018-10-05T12:58:48.391Z,426.33
2018-10-05T13:01:17.679Z,388.35
2018-10-05T13:03:46.718Z,450.87
2018-10-05T13:06:17.469Z,445.98
2018-10-05T13:08:46.616Z,430.35
2018-10-05T13:11:16.535Z,458.18
2018-10-05T13:13:47.292Z,500.02
2018-10-05T13:16:19.524Z,494.85
2018-10-05T13:18:48.683Z,475.12
2018-10-05T13:21:20.705Z,532.33
2018-10-05T13:23:51.748Z,711.65
2018-10-05T13:26:23.850Z,697.92
2018-10-05T13:28:56.305Z,766.27
2018-10-05T13:31:25.772Z,828.60
2018-10-05T13:33:57.037Z,819.30
2018-10-05T13:36:27.306Z,830.40
2018-10-05T13:38:59.697Z,873.53
2018-10-05T13:41:29.858Z,933.70
2018-10-05T13:43:59.340Z,985.05
2018-10-05T13:46:32.413Z,1013.58
2018-10-05T13:49:02.307Z,961.67
2018-10-05T13:51:32.919Z,1482.35
2018-10-05T13:54:03.719Z,976.10
2018-10-05T13:56:34.536Z,1356.68
2018-10-05T13:59:06.123Z,1455.80
2018-10-05T14:01:36.091Z,993.92
2018-10-05T14:04:07.202Z,911.73
2018-10-05T14:06:38.266Z,842.90
2018-10-05T14:09:12.555Z,771.08
2018-10-05T14:11:44.674Z,763.37
2018-10-05T14:14:15.251Z,725.27
2018-10-05T14:16:46.900Z,711.95
2018-10-05T14:19:18.603Z,712.62
2018-10-05T14:21:50.781Z,710.05
2018-10-05T14:24:21.312Z,891.70
2018-10-05T14:26:56.116Z,1262.58
2018-10-05T14:29:26.218Z,677.25
2018-10-05T14:31:57.599Z,730.33
2018-10-05T14:34:27.461Z,1250.05
2018-10-05T14:36:57.701Z,808.53
2018-10-05T14:39:28.162Z,1211.28
2018-10-05T14:41:58.889Z,600.98
2018-10-05T14:44:28.968Z,644.30
2018-10-05T14:47:01.231Z,648.47
2018-10-05T14:49:32.792Z,616.95
2018-10-05T14:52:03.574Z,695.92
2018-10-05T14:54:33.690Z,666.65
2018-10-05T14:57:03.596Z,634.83
2018-10-05T14:59:34.334Z,683.80
2018-10-05T15:02:10.033Z,713.00
2018-10-05T15:04:44.261Z,637.98
2018-10-05T15:07:16.122Z,724.58
2018-10-05T15:09:46.783Z,642.87
2018-10-05T15:12:16.156Z,610.30
2018-10-05T15:14:45.518Z,668.17
2018-10-05T15:17:15.958Z,643.15
2018-10-05T15:19:45.157Z,638.00
2018-10-05T15:22:14.751Z,654.17
2018-10-05T15:24:44.325Z,598.37
2018-10-05T15:27:14.968Z,547.52
2018-10-05T15:29:47.961Z,525.08
2018-10-05T15:32:18.055Z,539.35
2018-10-05T15:34:48.301Z,566.05
2018-10-05T15:37:17.239Z,590.15
2018-10-05T15:39:47.719Z,502.40
2018-10-05T15:42:16.792Z,486.15
2018-10-05T15:44:47.085Z,477.10
2018-10-05T15:47:17.646Z,480.10
2018-10-05T15:49:49.131Z,488.60
2018-10-05T15:52:19.647Z,464.15
2018-10-05T15:54:50.860Z,490.58
2018-10-05T15:57:20.599Z,449.55
2018-10-05T15:59:50.975Z,405.67
2018-10-05T16:02:22.046Z,431.25
2018-10-05T16:04:52.791Z,465.30
2018-10-05T16:07:22.405Z,452.88
2018-10-05T16:09:52.852Z,440.23
2018-10-05T16:12:22.805Z,592.60
2018-10-05T16:14:53.617Z,711.65
2018-10-05T16:17:24.768Z,731.30
2018-10-05T16:19:55.017Z,509.30
2018-10-05T16:22:25.076Z,635.37
2018-10-05T16:24:57.502Z,412.30
2018-10-05T16:27:28.276Z,423.82
2018-10-05T16:29:57.681Z,443.80
2018-10-05T16:32:27.352Z,450.87
2018-10-05T16:34:57.985Z,536.65
2018-10-05T16:37:29.502Z,502.32
2018-10-05T16:40:01.250Z,576.00
2018-10-05T16:42:34.929Z,521.40
2018-10-05T16:45:05.075Z,590.83
2018-10-05T16:47:34.802Z,367.57
2018-10-05T16:50:05.594Z,417.70
2018-10-05T16:52:34.566Z,554.42
2018-10-05T16:55:04.848Z,374.32
2018-10-05T16:57:33.947Z,377.65
2018-10-05T17:00:03.524Z,394.13
2018-10-05T17:02:33.002Z,390.45
2018-10-05T17:05:03.893Z,387.38
2018-10-05T17:07:33.487Z,338.30
2018-10-05T17:10:03.023Z,331.43
2018-10-05T17:12:37.019Z,331.75
2018-10-05T17:15:07.047Z,350.18
2018-10-05T17:17:37.925Z,313.52
2018-10-05T17:20:08.246Z,319.73
2018-10-05T17:22:37.555Z,313.35
2018-10-05T17:25:07.568Z,277.98
2018-10-05T17:27:36.843Z,294.05
2018-10-05T17:30:07.710Z,289.17
2018-10-05T17:32:38.190Z,270.73
2018-10-05T17:35:08.462Z,303.25
2018-10-05T17:37:37.964Z,315.45
2018-10-05T17:40:09.155Z,303.12
2018-10-05T17:42:40.823Z,281.45
2018-10-05T17:45:11.834Z,302.10
2018-10-05T17:47:41.676Z,284.60
2018-10-05T17:50:10.977Z,280.23
2018-10-05T17:52:40.536Z,308.05
2018-10-05T17:55:09.739Z,319.02
2018-10-05T17:57:39.908Z,335.13
2018-10-05T18:00:09.388Z,503.95
2018-10-05T18:02:38.922Z,354.40
2018-10-05T18:05:08.130Z,366.88
2018-10-05T18:07:37.989Z,314.98
2018-10-05T18:10:06.849Z,396.90
2018-10-05T18:12:36.803Z,277.90
2018-10-05T18:15:06.650Z,299.73
2018-10-05T18:17:35.742Z,314.35
2018-10-05T18:20:08.077Z,449.52
2018-10-05T18:22:38.333Z,356.63
2018-10-05T18:25:08.612Z,343.88
2018-10-05T18:27:39.475Z,309.92
2018-10-05T18:30:10.673Z,379.45
2018-10-05T18:32:42.367Z,288.07
2018-10-05T18:35:13.031Z,289.05
2018-10-05T18:37:49.225Z,277.48
2018-10-05T18:40:19.948Z,263.02
2018-10-05T18:42:50.258Z,268.42
2018-10-05T18:45:26.513Z,264.82
2018-10-05T18:47:57.061Z,326.58
2018-10-05T18:50:29.315Z,416.82
2018-10-05T18:53:01.201Z,255.70
2018-10-05T18:55:32.039Z,315.43
2018-10-05T18:58:04.157Z,241.15
2018-10-05T19:00:36.336Z,241.35
2018-10-05T19:03:08.783Z,246.03
2018-10-05T19:05:40.305Z,302.13
2018-10-05T19:08:11.513Z,241.97
2018-10-05T19:10:42.086Z,250.55
2018-10-05T19:13:12.180Z,305.20
2018-10-05T19:15:44.033Z,243.67
2018-10-05T19:18:13.436Z,247.90
2018-10-05T19:20:44.972Z,233.50
2018-10-05T19:23:15.139Z,233.23
2018-10-05T19:25:44.095Z,236.80
2018-10-05T19:28:13.702Z,242.60
2018-10-05T19:30:43.205Z,238.05
2018-10-05T19:33:12.319Z,226.22
2018-10-05T19:35:41.740Z,238.80
2018-10-05T19:38:11.727Z,253.80
2018-10-05T19:40:44.869Z,244.90
2018-10-05T19:43:15.194Z,257.62
2018-10-05T19:45:44.731Z,253.88
2018-10-05T19:48:20.359Z,257.73
2018-10-05T19:50:52.189Z,227.22
2018-10-05T19:53:23.598Z,342.52
2018-10-05T19:55:52.884Z,248.00
2018-10-05T19:58:23.186Z,238.20
2018-10-05T20:00:52.758Z,230.72
2018-10-05T20:03:23.045Z,238.05
2018-10-05T20:05:53.640Z,227.60
2018-10-05T20:08:23.871Z,233.70
2018-10-05T20:10:53.430Z,220.93
2018-10-05T20:13:22.657Z,217.82
2018-10-05T20:15:53.333Z,214.25
2018-10-05T20:18:24.389Z,218.05
2018-10-05T20:20:55.000Z,220.70
2018-10-05T20:23:24.700Z,230.77
2018-10-05T20:25:54.659Z,230.37
2018-10-05T20:28:24.474Z,215.97
2018-10-05T20:30:53.695Z,219.60
2018-10-05T20:33:24.580Z,222.22
2018-10-05T20:35:55.427Z,229.70
2018-10-05T20:38:24.888Z,235.40
2018-10-05T20:40:54.716Z,223.47
2018-10-05T20:43:23.601Z,221.25
2018-10-05T20:45:52.572Z,223.70
2018-10-05T20:48:22.035Z,218.80
2018-10-05T20:50:52.039Z,225.57
2018-10-05T20:53:23.528Z,232.30
2018-10-05T20:55:53.880Z,218.55
2018-10-05T20:58:23.794Z,228.62
2018-10-05T21:00:52.915Z,219.47
2018-10-05T21:03:23.198Z,219.30
2018-10-05T21:05:52.726Z,220.45
2018-10-05T21:08:21.843Z,213.45
2018-10-05T21:10:52.525Z,222.30
2018-10-05T21:13:21.614Z,219.60
2018-10-05T21:15:50.797Z,213.25
2018-10-05T21:18:20.648Z,222.75
2018-10-05T21:20:51.450Z,220.12
2018-10-05T21:23:21.075Z,225.05
2018-10-05T21:25:50.981Z,219.10
2018-10-05T21:28:19.887Z,220.20
2018-10-05T21:30:49.887Z,219.15
2018-10-05T21:33:18.952Z,215.43
2018-10-05T21:35:49.154Z,209.92
2018-10-05T21:38:19.366Z,283.38
2018-10-05T21:40:48.225Z,219.40
2018-10-05T21:43:17.863Z,214.35
2018-10-05T21:45:48.616Z,224.47
2018-10-05T21:48:19.315Z,237.53
2018-10-05T21:50:50.553Z,234.98
2018-10-05T21:53:19.993Z,233.75
2018-10-05T21:55:49.830Z,225.00
2018-10-05T21:58:20.614Z,232.22
2018-10-05T22:00:49.314Z,226.67
2018-10-05T22:03:19.475Z,221.20
2018-10-05T22:05:49.813Z,217.95
2018-10-05T22:08:18.816Z,219.53
2018-10-05T22:10:48.468Z,234.70
2018-10-05T22:13:17.565Z,231.07
2018-10-05T22:15:46.875Z,228.40
2018-10-05T22:18:15.885Z,214.72
2018-10-05T22:20:44.805Z,275.00
2018-10-05T22:23:15.052Z,219.45
2018-10-05T22:25:44.831Z,215.43
2018-10-05T22:28:13.887Z,217.68
2018-10-05T22:30:42.549Z,220.97
2018-10-05T22:33:11.894Z,218.82
2018-10-05T22:35:40.704Z,220.35
2018-10-05T22:38:10.143Z,214.97
2018-10-05T22:40:38.876Z,218.80
2018-10-05T22:43:08.004Z,219.90
2018-10-05T22:45:37.817Z,226.95
2018-10-05T22:48:06.944Z,209.83
2018-10-05T22:50:36.699Z,215.52
2018-10-05T22:53:05.582Z,215.87
2018-10-05T22:55:34.708Z,213.05
2018-10-05T22:58:04.245Z,220.20
2018-10-05T23:00:33.948Z,222.90
2018-10-05T23:03:03.141Z,218.07
2018-10-05T23:05:32.733Z,210.80
2018-10-05T23:08:01.736Z,212.90
2018-10-05T23:10:30.687Z,214.48
2018-10-05T23:12:59.734Z,226.50
2018-10-05T23:15:28.724Z,214.82
2018-10-05T23:17:57.604Z,213.95
2018-10-05T23:20:26.509Z,215.20
2018-10-05T23:22:56.089Z,230.20
2018-10-05T23:25:24.926Z,217.05
2018-10-05T23:27:54.131Z,281.82
2018-10-05T23:30:23.025Z,219.70
2018-10-05T23:32:51.956Z,215.00
2018-10-05T23:35:20.640Z,211.92
2018-10-05T23:37:49.505Z,213.03
2018-10-05T23:40:18.216Z,209.25
2018-10-05T23:42:47.619Z,210.70
2018-10-05T23:45:16.827Z,219.10
2018-10-05T23:47:45.564Z,219.37
2018-10-05T23:50:14.408Z,211.95
2018-10-05T23:52:46.779Z,217.05
2018-10-05T23:55:16.543Z,215.35
2018-10-05T23:57:45.484Z,220.35
